sensor_id;sensor_type;location;lat;lon;timestamp;temperature;humidity
67752;DHT22;54551;51.068;5.826;2022-12-01T00:02:00;7.80;99.90
67752;DHT22;54551;51.068;5.826;2022-12-01T00:04:26;7.70;99.90
67752;DHT22;54551;51.068;5.826;2022-12-01T00:06:52;7.70;99.90
67752;DHT22;54551;51.068;5.826;2022-12-01T00:09:18;7.70;99.90
67752;DHT22;54551;51.068;5.826;2022-12-01T00:12:03;7.60;99.90
67752;DHT22;54551;51.068;5.826;2022-12-01T00:14:29;7.70;99.90
67752;DHT22;54551;51.068;5.826;2022-12-01T00:16:54;7.70;99.90
67752;DHT22;54551;51.068;5.826;2022-12-01T00:19:24;7.70;99.90
67752;DHT22;54551;51.068;5.826;2022-12-01T00:21:50;7.80;99.90
67752;DHT22;54551;51.068;5.826;2022-12-01T00:24:15;7.70;99.90
67752;DHT22;54551;51.068;5.826;2022-12-01T00:26:42;7.70;99.90
67752;DHT22;54551;51.068;5.826;2022-12-01T00:29:08;7.70;99.90
67752;DHT22;54551;51.068;5.826;2022-12-01T00:31:34;7.60;99.90
67752;DHT22;54551;51.068;5.826;2022-12-01T00:34:00;7.70;99.90
67752;DHT22;54551;51.068;5.826;2022-12-01T00:36:26;7.70;99.90
67752;DHT22;54551;51.068;5.826;2022-12-01T00:38:53;7.70;99.90
67752;DHT22;54551;51.068;5.826;2022-12-01T00:41:20;7.70;99.90
67752;DHT22;54551;51.068;5.826;2022-12-01T00:43:46;7.70;99.90
67752;DHT22;54551;51.068;5.826;2022-12-01T00:46:12;7.70;99.90
67752;DHT22;54551;51.068;5.826;2022-12-01T00:48:38;7.70;99.90
67752;DHT22;54551;51.068;5.826;2022-12-01T00:51:04;7.70;99.90
67752;DHT22;54551;51.068;5.826;2022-12-01T00:53:31;7.70;99.90
67752;DHT22;54551;51.068;5.826;2022-12-01T00:55:57;7.70;99.90
67752;DHT22;54551;51.068;5.826;2022-12-01T00:58:23;7.70;99.90
67752;DHT22;54551;51.068;5.826;2022-12-01T01:00:56;7.60;99.90
67752;DHT22;54551;51.068;5.826;2022-12-01T01:03:22;7.60;99.90
67752;DHT22;54551;51.068;5.826;2022-12-01T01:05:48;7.60;99.90
67752;DHT22;54551;51.068;5.826;2022-12-01T01:08:14;7.50;99.90
67752;DHT22;54551;51.068;5.826;2022-12-01T01:10:42;7.50;99.90
67752;DHT22;54551;51.068;5.826;2022-12-01T01:13:08;7.50;99.90
67752;DHT22;54551;51.068;5.826;2022-12-01T01:15:34;7.50;99.90
67752;DHT22;54551;51.068;5.826;2022-12-01T01:18:01;7.50;99.90
67752;DHT22;54551;51.068;5.826;2022-12-01T01:20:27;7.50;99.90
67752;DHT22;54551;51.068;5.826;2022-12-01T01:22:53;7.50;99.90
67752;DHT22;54551;51.068;5.826;2022-12-01T01:25:19;7.50;99.90
67752;DHT22;54551;51.068;5.826;2022-12-01T01:27:45;7.50;99.90
67752;DHT22;54551;51.068;5.826;2022-12-01T01:30:11;7.40;99.90
67752;DHT22;54551;51.068;5.826;2022-12-01T01:32:37;7.40;99.90
67752;DHT22;54551;51.068;5.826;2022-12-01T01:35:05;7.40;99.90
67752;DHT22;54551;51.068;5.826;2022-12-01T01:37:31;7.40;99.90
67752;DHT22;54551;51.068;5.826;2022-12-01T01:39:57;7.40;99.90
67752;DHT22;54551;51.068;5.826;2022-12-01T01:42:23;7.40;99.90
67752;DHT22;54551;51.068;5.826;2022-12-01T01:47:18;7.40;99.90
67752;DHT22;54551;51.068;5.826;2022-12-01T01:49:46;7.40;99.90
67752;DHT22;54551;51.068;5.826;2022-12-01T01:52:12;7.30;99.90
67752;DHT22;54551;51.068;5.826;2022-12-01T01:54:42;7.10;99.90
67752;DHT22;54551;51.068;5.826;2022-12-01T01:57:11;7.20;99.90
67752;DHT22;54551;51.068;5.826;2022-12-01T01:59:46;7.20;99.90
67752;DHT22;54551;51.068;5.826;2022-12-01T02:02:14;7.30;99.90
67752;DHT22;54551;51.068;5.826;2022-12-01T02:04:44;7.30;99.90
67752;DHT22;54551;51.068;5.826;2022-12-01T02:07:11;7.40;99.90
67752;DHT22;54551;51.068;5.826;2022-12-01T02:09:38;7.30;99.90
67752;DHT22;54551;51.068;5.826;2022-12-01T02:17:50;7.10;99.90
67752;DHT22;54551;51.068;5.826;2022-12-01T02:20:36;7.20;99.90
67752;DHT22;54551;51.068;5.826;2022-12-01T02:34:37;7.30;99.90
67752;DHT22;54551;51.068;5.826;2022-12-01T02:37:10;7.40;99.90
67752;DHT22;54551;51.068;5.826;2022-12-01T02:40:04;7.40;99.90
67752;DHT22;54551;51.068;5.826;2022-12-01T02:42:56;7.50;99.90
67752;DHT22;54551;51.068;5.826;2022-12-01T02:45:48;7.40;99.90
67752;DHT22;54551;51.068;5.826;2022-12-01T02:48:19;7.50;99.90
67752;DHT22;54551;51.068;5.826;2022-12-01T02:50:48;7.50;99.90
67752;DHT22;54551;51.068;5.826;2022-12-01T02:53:16;7.50;99.90
67752;DHT22;54551;51.068;5.826;2022-12-01T02:55:51;7.40;99.90
67752;DHT22;54551;51.068;5.826;2022-12-01T02:58:17;7.40;99.90
67752;DHT22;54551;51.068;5.826;2022-12-01T03:12:33;7.20;99.90
67752;DHT22;54551;51.068;5.826;2022-12-01T03:15:43;7.20;99.90
67752;DHT22;54551;51.068;5.826;2022-12-01T03:20:38;7.20;99.90
67752;DHT22;54551;51.068;5.826;2022-12-01T03:23:13;7.10;99.90
67752;DHT22;54551;51.068;5.826;2022-12-01T03:25:43;7.20;99.90
67752;DHT22;54551;51.068;5.826;2022-12-01T03:28:12;7.10;99.90
67752;DHT22;54551;51.068;5.826;2022-12-01T03:30:40;7.10;99.90
67752;DHT22;54551;51.068;5.826;2022-12-01T03:33:20;7.00;99.90
67752;DHT22;54551;51.068;5.826;2022-12-01T03:36:00;7.00;99.90
67752;DHT22;54551;51.068;5.826;2022-12-01T03:38:29;7.00;99.90
67752;DHT22;54551;51.068;5.826;2022-12-01T03:41:00;7.10;99.90
67752;DHT22;54551;51.068;5.826;2022-12-01T03:43:33;7.10;99.90
67752;DHT22;54551;51.068;5.826;2022-12-01T03:46:28;7.10;99.90
67752;DHT22;54551;51.068;5.826;2022-12-01T03:48:56;7.10;99.90
67752;DHT22;54551;51.068;5.826;2022-12-01T03:54:19;7.20;99.90
67752;DHT22;54551;51.068;5.826;2022-12-01T03:56:54;7.20;99.90
67752;DHT22;54551;51.068;5.826;2022-12-01T03:59:23;7.10;99.90
67752;DHT22;54551;51.068;5.826;2022-12-01T04:01:50;7.20;99.90
67752;DHT22;54551;51.068;5.826;2022-12-01T04:04:16;7.00;99.90
67752;DHT22;54551;51.068;5.826;2022-12-01T04:06:48;7.00;99.90
67752;DHT22;54551;51.068;5.826;2022-12-01T04:09:15;7.00;99.90
67752;DHT22;54551;51.068;5.826;2022-12-01T04:11:41;7.00;99.90
67752;DHT22;54551;51.068;5.826;2022-12-01T04:14:26;7.00;99.90
67752;DHT22;54551;51.068;5.826;2022-12-01T04:16:52;7.00;99.90
67752;DHT22;54551;51.068;5.826;2022-12-01T04:19:17;7.00;99.90
67752;DHT22;54551;51.068;5.826;2022-12-01T04:21:43;7.00;99.90
67752;DHT22;54551;51.068;5.826;2022-12-01T04:24:11;7.00;99.90
67752;DHT22;54551;51.068;5.826;2022-12-01T04:26:37;7.10;99.90
67752;DHT22;54551;51.068;5.826;2022-12-01T04:29:06;7.00;99.90
67752;DHT22;54551;51.068;5.826;2022-12-01T04:31:32;7.10;99.90
67752;DHT22;54551;51.068;5.826;2022-12-01T04:33:59;7.10;99.90
67752;DHT22;54551;51.068;5.826;2022-12-01T04:36:28;7.10;99.90
67752;DHT22;54551;51.068;5.826;2022-12-01T04:38:54;6.90;99.90
67752;DHT22;54551;51.068;5.826;2022-12-01T04:41:20;7.00;99.90
67752;DHT22;54551;51.068;5.826;2022-12-01T04:43:46;7.10;99.90
67752;DHT22;54551;51.068;5.826;2022-12-01T04:46:13;7.10;99.90
67752;DHT22;54551;51.068;5.826;2022-12-01T04:48:39;7.10;99.90
67752;DHT22;54551;51.068;5.826;2022-12-01T04:51:07;7.20;99.90
67752;DHT22;54551;51.068;5.826;2022-12-01T04:53:34;7.20;99.90
67752;DHT22;54551;51.068;5.826;2022-12-01T04:56:00;7.10;99.90
67752;DHT22;54551;51.068;5.826;2022-12-01T04:58:27;7.00;99.90
67752;DHT22;54551;51.068;5.826;2022-12-01T05:00:53;7.10;99.90
67752;DHT22;54551;51.068;5.826;2022-12-01T05:03:19;7.10;99.90
67752;DHT22;54551;51.068;5.826;2022-12-01T05:05:45;7.10;99.90
67752;DHT22;54551;51.068;5.826;2022-12-01T05:08:11;7.10;99.90
67752;DHT22;54551;51.068;5.826;2022-12-01T05:10:37;7.10;99.90
67752;DHT22;54551;51.068;5.826;2022-12-01T05:13:04;7.20;99.90
67752;DHT22;54551;51.068;5.826;2022-12-01T05:15:30;7.10;99.90
67752;DHT22;54551;51.068;5.826;2022-12-01T05:17:57;7.10;99.90
67752;DHT22;54551;51.068;5.826;2022-12-01T05:20:24;7.10;99.90
67752;DHT22;54551;51.068;5.826;2022-12-01T05:23:09;7.10;99.90
67752;DHT22;54551;51.068;5.826;2022-12-01T05:25:35;7.00;99.90
67752;DHT22;54551;51.068;5.826;2022-12-01T05:28:03;7.10;99.90
67752;DHT22;54551;51.068;5.826;2022-12-01T05:30:29;7.10;99.90
67752;DHT22;54551;51.068;5.826;2022-12-01T05:32:55;7.10;99.90
67752;DHT22;54551;51.068;5.826;2022-12-01T05:35:21;7.10;99.90
67752;DHT22;54551;51.068;5.826;2022-12-01T05:37:47;7.10;99.90
67752;DHT22;54551;51.068;5.826;2022-12-01T05:40:13;7.00;99.90
67752;DHT22;54551;51.068;5.826;2022-12-01T05:42:38;7.00;99.90
67752;DHT22;54551;51.068;5.826;2022-12-01T05:45:05;7.00;99.90
67752;DHT22;54551;51.068;5.826;2022-12-01T05:47:31;7.00;99.90
67752;DHT22;54551;51.068;5.826;2022-12-01T05:49:57;7.00;99.90
67752;DHT22;54551;51.068;5.826;2022-12-01T05:52:22;7.00;99.90
67752;DHT22;54551;51.068;5.826;2022-12-01T05:54:48;7.00;99.90
67752;DHT22;54551;51.068;5.826;2022-12-01T05:57:14;6.90;99.90
67752;DHT22;54551;51.068;5.826;2022-12-01T05:59:40;6.90;99.90
67752;DHT22;54551;51.068;5.826;2022-12-01T06:02:06;7.00;99.90
67752;DHT22;54551;51.068;5.826;2022-12-01T06:04:32;7.00;99.90
67752;DHT22;54551;51.068;5.826;2022-12-01T06:06:58;7.00;99.90
67752;DHT22;54551;51.068;5.826;2022-12-01T06:09:23;7.00;99.90
67752;DHT22;54551;51.068;5.826;2022-12-01T06:11:49;6.90;99.90
67752;DHT22;54551;51.068;5.826;2022-12-01T06:14:15;7.00;99.90
67752;DHT22;54551;51.068;5.826;2022-12-01T06:16:41;7.00;99.90
67752;DHT22;54551;51.068;5.826;2022-12-01T06:19:07;7.00;99.90
67752;DHT22;54551;51.068;5.826;2022-12-01T06:21:33;7.00;99.90
67752;DHT22;54551;51.068;5.826;2022-12-01T06:23:59;7.00;99.90
67752;DHT22;54551;51.068;5.826;2022-12-01T06:26:25;6.90;99.90
67752;DHT22;54551;51.068;5.826;2022-12-01T06:28:51;6.90;99.90
67752;DHT22;54551;51.068;5.826;2022-12-01T06:31:17;6.90;99.90
67752;DHT22;54551;51.068;5.826;2022-12-01T06:33:43;6.90;99.90
67752;DHT22;54551;51.068;5.826;2022-12-01T06:36:09;7.00;99.90
67752;DHT22;54551;51.068;5.826;2022-12-01T06:38:36;6.90;99.90
67752;DHT22;54551;51.068;5.826;2022-12-01T06:41:04;6.80;99.90
67752;DHT22;54551;51.068;5.826;2022-12-01T06:43:30;6.60;99.90
67752;DHT22;54551;51.068;5.826;2022-12-01T06:46:02;6.70;99.90
67752;DHT22;54551;51.068;5.826;2022-12-01T06:48:29;6.70;99.90
67752;DHT22;54551;51.068;5.826;2022-12-01T07:02:12;6.40;99.90
67752;DHT22;54551;51.068;5.826;2022-12-01T07:04:37;6.40;99.90
67752;DHT22;54551;51.068;5.826;2022-12-01T07:07:04;6.50;99.90
67752;DHT22;54551;51.068;5.826;2022-12-01T07:09:30;6.50;99.90
67752;DHT22;54551;51.068;5.826;2022-12-01T07:11:56;6.60;99.90
67752;DHT22;54551;51.068;5.826;2022-12-01T07:14:23;6.60;99.90
67752;DHT22;54551;51.068;5.826;2022-12-01T07:16:50;6.80;99.90
67752;DHT22;54551;51.068;5.826;2022-12-01T07:19:15;6.70;99.90
67752;DHT22;54551;51.068;5.826;2022-12-01T07:21:41;6.60;99.90
67752;DHT22;54551;51.068;5.826;2022-12-01T07:24:07;6.60;99.90
67752;DHT22;54551;51.068;5.826;2022-12-01T07:26:33;6.70;99.90
67752;DHT22;54551;51.068;5.826;2022-12-01T07:28:59;6.70;99.90
67752;DHT22;54551;51.068;5.826;2022-12-01T07:31:25;6.70;99.90
67752;DHT22;54551;51.068;5.826;2022-12-01T07:33:51;6.70;99.90
67752;DHT22;54551;51.068;5.826;2022-12-01T07:36:17;6.90;99.90
67752;DHT22;54551;51.068;5.826;2022-12-01T07:38:43;6.90;99.90
67752;DHT22;54551;51.068;5.826;2022-12-01T07:41:17;6.90;99.90
67752;DHT22;54551;51.068;5.826;2022-12-01T07:43:49;6.90;99.90
67752;DHT22;54551;51.068;5.826;2022-12-01T07:46:20;7.00;99.90
67752;DHT22;54551;51.068;5.826;2022-12-01T07:48:46;7.10;99.90
67752;DHT22;54551;51.068;5.826;2022-12-01T07:51:14;7.10;99.90
67752;DHT22;54551;51.068;5.826;2022-12-01T07:53:47;7.20;99.90
67752;DHT22;54551;51.068;5.826;2022-12-01T07:56:16;7.00;99.90
67752;DHT22;54551;51.068;5.826;2022-12-01T07:58:43;6.90;99.90
67752;DHT22;54551;51.068;5.826;2022-12-01T08:01:12;6.90;99.90
67752;DHT22;54551;51.068;5.826;2022-12-01T08:03:38;6.90;99.90
67752;DHT22;54551;51.068;5.826;2022-12-01T08:06:05;6.90;99.90
67752;DHT22;54551;51.068;5.826;2022-12-01T08:08:33;7.00;99.90
67752;DHT22;54551;51.068;5.826;2022-12-01T08:11:02;6.90;99.90
67752;DHT22;54551;51.068;5.826;2022-12-01T08:13:28;6.90;99.90
67752;DHT22;54551;51.068;5.826;2022-12-01T08:15:54;6.90;99.90
67752;DHT22;54551;51.068;5.826;2022-12-01T08:18:20;7.00;99.90
67752;DHT22;54551;51.068;5.826;2022-12-01T08:20:48;7.10;99.90
67752;DHT22;54551;51.068;5.826;2022-12-01T08:23:14;7.00;99.90
67752;DHT22;54551;51.068;5.826;2022-12-01T08:25:40;7.00;99.90
67752;DHT22;54551;51.068;5.826;2022-12-01T08:28:05;6.90;99.90
67752;DHT22;54551;51.068;5.826;2022-12-01T08:30:31;6.80;99.90
67752;DHT22;54551;51.068;5.826;2022-12-01T08:32:57;6.70;99.90
67752;DHT22;54551;51.068;5.826;2022-12-01T08:35:24;6.60;99.90
67752;DHT22;54551;51.068;5.826;2022-12-01T08:37:53;6.80;99.90
67752;DHT22;54551;51.068;5.826;2022-12-01T08:40:20;6.50;99.90
67752;DHT22;54551;51.068;5.826;2022-12-01T08:42:47;6.40;99.90
67752;DHT22;54551;51.068;5.826;2022-12-01T08:45:13;6.50;99.90
67752;DHT22;54551;51.068;5.826;2022-12-01T08:47:39;6.70;99.90
67752;DHT22;54551;51.068;5.826;2022-12-01T08:50:05;6.50;99.90
67752;DHT22;54551;51.068;5.826;2022-12-01T08:52:32;6.60;99.90
67752;DHT22;54551;51.068;5.826;2022-12-01T08:54:59;6.80;99.90
67752;DHT22;54551;51.068;5.826;2022-12-01T08:57:25;6.80;99.90
67752;DHT22;54551;51.068;5.826;2022-12-01T08:59:51;6.80;99.90
67752;DHT22;54551;51.068;5.826;2022-12-01T09:02:16;6.90;99.90
67752;DHT22;54551;51.068;5.826;2022-12-01T09:04:51;7.00;99.90
67752;DHT22;54551;51.068;5.826;2022-12-01T09:07:18;7.00;99.90
67752;DHT22;54551;51.068;5.826;2022-12-01T09:09:44;7.00;99.90
67752;DHT22;54551;51.068;5.826;2022-12-01T09:12:11;7.10;99.90
67752;DHT22;54551;51.068;5.826;2022-12-01T09:14:41;7.10;99.90
67752;DHT22;54551;51.068;5.826;2022-12-01T09:17:08;7.10;99.90
67752;DHT22;54551;51.068;5.826;2022-12-01T09:19:34;7.10;99.90
67752;DHT22;54551;51.068;5.826;2022-12-01T09:22:00;7.20;99.90
67752;DHT22;54551;51.068;5.826;2022-12-01T09:24:26;7.20;99.90
67752;DHT22;54551;51.068;5.826;2022-12-01T09:26:59;7.40;99.90
67752;DHT22;54551;51.068;5.826;2022-12-01T09:29:25;7.30;99.90
67752;DHT22;54551;51.068;5.826;2022-12-01T09:31:57;7.30;99.90
67752;DHT22;54551;51.068;5.826;2022-12-01T09:34:24;7.30;99.90
67752;DHT22;54551;51.068;5.826;2022-12-01T09:36:54;7.40;99.90
67752;DHT22;54551;51.068;5.826;2022-12-01T09:39:20;7.40;99.90
67752;DHT22;54551;51.068;5.826;2022-12-01T09:42:00;7.40;99.90
67752;DHT22;54551;51.068;5.826;2022-12-01T09:47:16;7.50;99.90
67752;DHT22;54551;51.068;5.826;2022-12-01T09:49:55;7.60;99.90
67752;DHT22;54551;51.068;5.826;2022-12-01T09:52:26;7.80;99.90
67752;DHT22;54551;51.068;5.826;2022-12-01T09:54:54;7.90;99.90
67752;DHT22;54551;51.068;5.826;2022-12-01T09:57:32;8.00;99.90
67752;DHT22;54551;51.068;5.826;2022-12-01T10:00:01;8.10;99.90
67752;DHT22;54551;51.068;5.826;2022-12-01T10:05:28;8.10;99.90
67752;DHT22;54551;51.068;5.826;2022-12-01T10:08:01;8.10;99.90
67752;DHT22;54551;51.068;5.826;2022-12-01T10:10:45;8.20;99.90
67752;DHT22;54551;51.068;5.826;2022-12-01T10:13:20;8.10;99.90
67752;DHT22;54551;51.068;5.826;2022-12-01T10:15:59;8.00;99.90
67752;DHT22;54551;51.068;5.826;2022-12-01T10:21:01;7.90;99.90
67752;DHT22;54551;51.068;5.826;2022-12-01T10:34:01;7.70;99.90
67752;DHT22;54551;51.068;5.826;2022-12-01T10:36:29;7.70;99.90
67752;DHT22;54551;51.068;5.826;2022-12-01T10:38:55;7.70;99.90
67752;DHT22;54551;51.068;5.826;2022-12-01T10:41:23;7.70;99.90
67752;DHT22;54551;51.068;5.826;2022-12-01T10:43:52;7.70;99.90
67752;DHT22;54551;51.068;5.826;2022-12-01T10:48:58;7.60;99.90
67752;DHT22;54551;51.068;5.826;2022-12-01T10:51:25;7.60;99.90
67752;DHT22;54551;51.068;5.826;2022-12-01T10:54:09;7.80;99.90
67752;DHT22;54551;51.068;5.826;2022-12-01T10:56:38;7.60;99.90
67752;DHT22;54551;51.068;5.826;2022-12-01T10:59:22;7.70;99.90
67752;DHT22;54551;51.068;5.826;2022-12-01T11:01:49;7.60;99.90
67752;DHT22;54551;51.068;5.826;2022-12-01T11:04:45;7.60;99.90
67752;DHT22;54551;51.068;5.826;2022-12-01T11:07:42;7.60;99.90
67752;DHT22;54551;51.068;5.826;2022-12-01T11:12:42;7.80;99.90
67752;DHT22;54551;51.068;5.826;2022-12-01T11:15:31;7.60;99.90
67752;DHT22;54551;51.068;5.826;2022-12-01T11:18:00;7.50;99.90
67752;DHT22;54551;51.068;5.826;2022-12-01T11:20:34;7.60;99.90
67752;DHT22;54551;51.068;5.826;2022-12-01T11:31:19;7.60;99.90
67752;DHT22;54551;51.068;5.826;2022-12-01T11:33:53;7.50;99.90
67752;DHT22;54551;51.068;5.826;2022-12-01T11:36:33;7.50;99.90
67752;DHT22;54551;51.068;5.826;2022-12-01T11:39:00;7.60;99.90
67752;DHT22;54551;51.068;5.826;2022-12-01T11:41:35;7.70;99.90
67752;DHT22;54551;51.068;5.826;2022-12-01T11:44:04;7.80;99.90
67752;DHT22;54551;51.068;5.826;2022-12-01T11:46:35;7.80;99.90
67752;DHT22;54551;51.068;5.826;2022-12-01T11:49:03;7.80;99.90
67752;DHT22;54551;51.068;5.826;2022-12-01T11:51:32;7.80;99.90
67752;DHT22;54551;51.068;5.826;2022-12-01T11:54:25;7.80;99.90
67752;DHT22;54551;51.068;5.826;2022-12-01T11:56:52;7.80;99.90
67752;DHT22;54551;51.068;5.826;2022-12-01T11:59:24;7.90;99.90
67752;DHT22;54551;51.068;5.826;2022-12-01T12:02:14;7.90;99.90
67752;DHT22;54551;51.068;5.826;2022-12-01T12:18:43;7.90;99.90
67752;DHT22;54551;51.068;5.826;2022-12-01T12:30:19;7.70;99.90
67752;DHT22;54551;51.068;5.826;2022-12-01T12:35:57;7.50;99.90
67752;DHT22;54551;51.068;5.826;2022-12-01T12:38:35;7.60;99.90
67752;DHT22;54551;51.068;5.826;2022-12-01T12:41:27;7.60;99.90
67752;DHT22;54551;51.068;5.826;2022-12-01T12:50:05;7.70;99.90
67752;DHT22;54551;51.068;5.826;2022-12-01T12:52:37;7.60;99.90
67752;DHT22;54551;51.068;5.826;2022-12-01T12:55:13;7.70;99.90
67752;DHT22;54551;51.068;5.826;2022-12-01T12:57:45;7.70;99.90
67752;DHT22;54551;51.068;5.826;2022-12-01T13:06:18;7.70;99.90
67752;DHT22;54551;51.068;5.826;2022-12-01T13:08:51;7.60;99.90
67752;DHT22;54551;51.068;5.826;2022-12-01T13:11:21;7.50;99.90
67752;DHT22;54551;51.068;5.826;2022-12-01T13:13:56;7.50;99.90
67752;DHT22;54551;51.068;5.826;2022-12-01T13:16:41;7.60;99.90
67752;DHT22;54551;51.068;5.826;2022-12-01T13:19:26;7.40;99.90
67752;DHT22;54551;51.068;5.826;2022-12-01T13:21:54;7.30;99.90
67752;DHT22;54551;51.068;5.826;2022-12-01T13:24:22;7.50;99.90
67752;DHT22;54551;51.068;5.826;2022-12-01T13:27:02;7.30;99.90
67752;DHT22;54551;51.068;5.826;2022-12-01T13:29:33;7.40;99.90
67752;DHT22;54551;51.068;5.826;2022-12-01T13:32:00;7.40;99.90
67752;DHT22;54551;51.068;5.826;2022-12-01T13:34:38;7.30;99.90
67752;DHT22;54551;51.068;5.826;2022-12-01T13:37:05;7.20;99.90
67752;DHT22;54551;51.068;5.826;2022-12-01T13:39:33;7.30;99.90
67752;DHT22;54551;51.068;5.826;2022-12-01T13:42:21;7.20;99.90
67752;DHT22;54551;51.068;5.826;2022-12-01T13:44:54;7.30;99.90
67752;DHT22;54551;51.068;5.826;2022-12-01T13:53:12;7.20;99.90
67752;DHT22;54551;51.068;5.826;2022-12-01T14:04:36;7.20;99.90
67752;DHT22;54551;51.068;5.826;2022-12-01T14:06:45;7.10;99.90
67752;DHT22;54551;51.068;5.826;2022-12-01T14:12:02;7.10;99.90
67752;DHT22;54551;51.068;5.826;2022-12-01T14:14:35;7.20;99.90
67752;DHT22;54551;51.068;5.826;2022-12-01T14:17:02;7.20;99.90
67752;DHT22;54551;51.068;5.826;2022-12-01T14:19:46;7.30;99.90
67752;DHT22;54551;51.068;5.826;2022-12-01T14:22:34;7.40;99.90
67752;DHT22;54551;51.068;5.826;2022-12-01T14:25:04;7.20;99.90
67752;DHT22;54551;51.068;5.826;2022-12-01T14:27:37;7.10;99.90
67752;DHT22;54551;51.068;5.826;2022-12-01T14:44:50;7.10;99.90
67752;DHT22;54551;51.068;5.826;2022-12-01T14:47:23;7.10;99.90
67752;DHT22;54551;51.068;5.826;2022-12-01T14:52:52;7.00;99.90
67752;DHT22;54551;51.068;5.826;2022-12-01T14:55:22;7.10;99.90
67752;DHT22;54551;51.068;5.826;2022-12-01T14:57:52;7.00;99.90
67752;DHT22;54551;51.068;5.826;2022-12-01T15:00:19;7.10;99.90
67752;DHT22;54551;51.068;5.826;2022-12-01T15:02:54;7.10;99.90
67752;DHT22;54551;51.068;5.826;2022-12-01T15:05:25;7.00;99.90
67752;DHT22;54551;51.068;5.826;2022-12-01T15:07:54;7.00;99.90
67752;DHT22;54551;51.068;5.826;2022-12-01T15:10:29;7.00;99.90
67752;DHT22;54551;51.068;5.826;2022-12-01T15:13:13;7.00;99.90
67752;DHT22;54551;51.068;5.826;2022-12-01T15:15:52;7.00;99.90
67752;DHT22;54551;51.068;5.826;2022-12-01T15:18:25;7.00;99.90
67752;DHT22;54551;51.068;5.826;2022-12-01T15:21:03;6.80;99.90
67752;DHT22;54551;51.068;5.826;2022-12-01T15:23:30;7.00;99.90
67752;DHT22;54551;51.068;5.826;2022-12-01T15:25:56;6.90;99.90
67752;DHT22;54551;51.068;5.826;2022-12-01T15:28:34;6.90;99.90
67752;DHT22;54551;51.068;5.826;2022-12-01T15:31:12;6.90;99.90
67752;DHT22;54551;51.068;5.826;2022-12-01T15:33:46;7.00;99.90
67752;DHT22;54551;51.068;5.826;2022-12-01T15:36:13;7.10;99.90
67752;DHT22;54551;51.068;5.826;2022-12-01T15:38:40;7.00;99.90
67752;DHT22;54551;51.068;5.826;2022-12-01T15:41:16;7.00;99.90
67752;DHT22;54551;51.068;5.826;2022-12-01T15:43:43;7.00;99.90
67752;DHT22;54551;51.068;5.826;2022-12-01T15:46:17;7.00;99.90
67752;DHT22;54551;51.068;5.826;2022-12-01T15:48:44;6.90;99.90
67752;DHT22;54551;51.068;5.826;2022-12-01T15:56:16;6.80;99.90
67752;DHT22;54551;51.068;5.826;2022-12-01T15:58:50;6.60;99.90
67752;DHT22;54551;51.068;5.826;2022-12-01T16:01:18;6.80;99.90
67752;DHT22;54551;51.068;5.826;2022-12-01T16:06:26;6.70;99.90
67752;DHT22;54551;51.068;5.826;2022-12-01T16:08:59;6.90;99.90
67752;DHT22;54551;51.068;5.826;2022-12-01T16:11:26;6.80;99.90
67752;DHT22;54551;51.068;5.826;2022-12-01T16:14:16;6.80;99.90
67752;DHT22;54551;51.068;5.826;2022-12-01T16:16:47;6.80;99.90
67752;DHT22;54551;51.068;5.826;2022-12-01T16:21:54;6.90;99.90
67752;DHT22;54551;51.068;5.826;2022-12-01T16:24:26;6.90;99.90
67752;DHT22;54551;51.068;5.826;2022-12-01T16:27:05;6.90;99.90
67752;DHT22;54551;51.068;5.826;2022-12-01T16:29:56;6.90;99.90
67752;DHT22;54551;51.068;5.826;2022-12-01T16:32:35;7.00;99.90
67752;DHT22;54551;51.068;5.826;2022-12-01T16:35:04;7.00;99.90
67752;DHT22;54551;51.068;5.826;2022-12-01T16:37:31;7.10;99.90
67752;DHT22;54551;51.068;5.826;2022-12-01T16:39:57;7.10;99.90
67752;DHT22;54551;51.068;5.826;2022-12-01T16:42:23;7.10;99.90
67752;DHT22;54551;51.068;5.826;2022-12-01T16:44:50;7.10;99.90
67752;DHT22;54551;51.068;5.826;2022-12-01T16:47:22;7.00;99.90
67752;DHT22;54551;51.068;5.826;2022-12-01T16:49:51;7.00;99.90
67752;DHT22;54551;51.068;5.826;2022-12-01T16:52:17;6.90;99.90
67752;DHT22;54551;51.068;5.826;2022-12-01T16:54:43;7.00;99.90
67752;DHT22;54551;51.068;5.826;2022-12-01T16:57:12;7.00;99.90
67752;DHT22;54551;51.068;5.826;2022-12-01T16:59:38;7.00;99.90
67752;DHT22;54551;51.068;5.826;2022-12-01T17:02:04;7.00;99.90
67752;DHT22;54551;51.068;5.826;2022-12-01T17:04:29;7.00;99.90
67752;DHT22;54551;51.068;5.826;2022-12-01T17:06:55;7.00;99.90
67752;DHT22;54551;51.068;5.826;2022-12-01T17:09:21;6.90;99.90
67752;DHT22;54551;51.068;5.826;2022-12-01T17:11:47;6.80;99.90
67752;DHT22;54551;51.068;5.826;2022-12-01T17:14:13;6.90;99.90
67752;DHT22;54551;51.068;5.826;2022-12-01T17:16:39;7.00;99.90
67752;DHT22;54551;51.068;5.826;2022-12-01T17:19:06;7.00;99.90
67752;DHT22;54551;51.068;5.826;2022-12-01T17:21:32;7.00;99.90
67752;DHT22;54551;51.068;5.826;2022-12-01T17:23:57;7.10;99.90
67752;DHT22;54551;51.068;5.826;2022-12-01T17:26:23;7.20;99.90
67752;DHT22;54551;51.068;5.826;2022-12-01T17:28:51;7.20;99.90
67752;DHT22;54551;51.068;5.826;2022-12-01T17:31:18;7.10;99.90
67752;DHT22;54551;51.068;5.826;2022-12-01T17:33:47;7.10;99.90
67752;DHT22;54551;51.068;5.826;2022-12-01T17:36:14;7.10;99.90
67752;DHT22;54551;51.068;5.826;2022-12-01T17:38:42;7.10;99.90
67752;DHT22;54551;51.068;5.826;2022-12-01T17:41:13;7.10;99.90
67752;DHT22;54551;51.068;5.826;2022-12-01T17:43:41;7.10;99.90
67752;DHT22;54551;51.068;5.826;2022-12-01T17:46:09;7.20;99.90
67752;DHT22;54551;51.068;5.826;2022-12-01T17:48:45;7.20;99.90
67752;DHT22;54551;51.068;5.826;2022-12-01T17:51:12;7.10;99.90
67752;DHT22;54551;51.068;5.826;2022-12-01T17:53:39;7.10;99.90
67752;DHT22;54551;51.068;5.826;2022-12-01T17:56:08;7.20;99.90
67752;DHT22;54551;51.068;5.826;2022-12-01T17:58:35;7.10;99.90
67752;DHT22;54551;51.068;5.826;2022-12-01T18:01:01;7.10;99.90
67752;DHT22;54551;51.068;5.826;2022-12-01T18:03:27;7.10;99.90
67752;DHT22;54551;51.068;5.826;2022-12-01T18:05:57;7.00;99.90
67752;DHT22;54551;51.068;5.826;2022-12-01T18:08:26;7.10;99.90
67752;DHT22;54551;51.068;5.826;2022-12-01T18:10:53;7.00;99.90
67752;DHT22;54551;51.068;5.826;2022-12-01T18:13:20;6.90;99.90
67752;DHT22;54551;51.068;5.826;2022-12-01T18:15:47;6.90;99.90
67752;DHT22;54551;51.068;5.826;2022-12-01T18:18:12;7.00;99.90
67752;DHT22;54551;51.068;5.826;2022-12-01T18:20:40;7.00;99.90
67752;DHT22;54551;51.068;5.826;2022-12-01T18:23:06;7.00;99.90
67752;DHT22;54551;51.068;5.826;2022-12-01T18:25:36;7.00;99.90
67752;DHT22;54551;51.068;5.826;2022-12-01T18:28:03;7.00;99.90
67752;DHT22;54551;51.068;5.826;2022-12-01T18:30:33;6.90;99.90
67752;DHT22;54551;51.068;5.826;2022-12-01T18:32:59;6.90;99.90
67752;DHT22;54551;51.068;5.826;2022-12-01T18:35:25;6.90;99.90
67752;DHT22;54551;51.068;5.826;2022-12-01T18:37:52;6.90;99.90
67752;DHT22;54551;51.068;5.826;2022-12-01T18:40:18;6.90;99.90
67752;DHT22;54551;51.068;5.826;2022-12-01T18:42:44;7.00;99.90
67752;DHT22;54551;51.068;5.826;2022-12-01T18:45:11;7.00;99.90